createdAt,value
2017-11-11T00:00:15.323Z,1011.89
2017-11-11T00:01:15.203Z,1011.91
2017-11-11T00:02:15.325Z,1011.93
2017-11-11T00:03:15.141Z,1011.94
2017-11-11T00:04:15.233Z,1011.98
2017-11-11T00:05:15.084Z,1011.98
2017-11-11T00:06:15.153Z,1011.97
2017-11-11T00:07:15.022Z,1011.98
2017-11-11T00:08:15.057Z,1012.00
2017-11-11T00:09:14.967Z,1011.92
2017-11-11T00:10:15.077Z,1011.93
2017-11-11T00:11:14.901Z,1011.94
2017-11-11T00:12:14.997Z,1011.94
2017-11-11T00:13:14.841Z,1011.88
2017-11-11T00:14:14.900Z,1011.90
2017-11-11T00:15:14.782Z,1011.85
2017-11-11T00:16:14.910Z,1011.85
2017-11-11T00:17:14.719Z,1011.85
2017-11-11T00:18:14.820Z,1011.85
2017-11-11T00:19:14.660Z,1011.82
2017-11-11T00:20:14.730Z,1011.81
2017-11-11T00:21:14.599Z,1011.83
2017-11-11T00:22:14.654Z,1011.78
2017-11-11T00:23:14.542Z,1011.81
2017-11-11T00:24:14.656Z,1011.77
2017-11-11T00:25:14.479Z,1011.80
2017-11-11T00:26:14.567Z,1011.79
2017-11-11T00:27:14.421Z,1011.76
2017-11-11T00:28:14.486Z,1011.78
2017-11-11T00:29:14.359Z,1011.75
2017-11-11T00:30:14.520Z,1011.80
2017-11-11T00:31:14.300Z,1011.74
2017-11-11T00:32:14.413Z,1011.80
2017-11-11T00:33:14.235Z,1011.74
2017-11-11T00:34:14.321Z,1011.72
2017-11-11T00:35:14.180Z,1011.76
2017-11-11T00:36:14.233Z,1011.70
2017-11-11T00:37:14.123Z,1011.79
2017-11-11T00:38:14.178Z,1011.67
2017-11-11T00:39:14.054Z,1011.65
2017-11-11T00:40:14.159Z,1011.66
2017-11-11T00:41:14.001Z,1011.64
2017-11-11T00:42:14.069Z,1011.65
2017-11-11T00:43:13.933Z,1011.61
2017-11-11T00:44:14.080Z,1011.65
2017-11-11T00:45:13.882Z,1011.61
2017-11-11T00:46:14.000Z,1011.65
2017-11-11T00:47:13.821Z,1011.64
2017-11-11T00:48:13.907Z,1011.59
2017-11-11T00:49:13.756Z,1011.64
2017-11-11T00:50:13.813Z,1011.70
2017-11-11T00:51:13.689Z,1011.67
2017-11-11T00:52:13.828Z,1011.65
2017-11-11T00:53:13.633Z,1011.67
2017-11-11T00:54:13.741Z,1011.62
2017-11-11T00:55:13.574Z,1011.62
2017-11-11T00:56:13.650Z,1011.60
2017-11-11T00:57:13.514Z,1011.55
2017-11-11T00:58:13.664Z,1011.58
2017-11-11T00:59:13.453Z,1011.56
2017-11-11T01:00:13.577Z,1011.52
2017-11-11T01:01:13.388Z,1011.52
2017-11-11T01:02:13.485Z,1011.57
2017-11-11T01:03:13.334Z,1011.50
2017-11-11T01:04:13.402Z,1011.51
2017-11-11T01:05:13.270Z,1011.50
2017-11-11T01:06:13.413Z,1011.48
2017-11-11T01:07:13.209Z,1011.48
2017-11-11T01:08:13.324Z,1011.48
2017-11-11T01:09:13.150Z,1011.47
2017-11-11T01:10:13.236Z,1011.50
2017-11-11T01:11:13.087Z,1011.50
2017-11-11T01:12:13.249Z,1011.47
2017-11-11T01:13:13.032Z,1011.46
2017-11-11T01:14:13.161Z,1011.52
2017-11-11T01:15:12.966Z,1011.48
2017-11-11T01:16:13.072Z,1011.47
2017-11-11T01:17:12.903Z,1011.50
2017-11-11T01:18:12.983Z,1011.56
2017-11-11T01:19:12.843Z,1011.56
2017-11-11T01:20:12.997Z,1011.51
2017-11-11T01:21:12.785Z,1011.47
2017-11-11T01:22:12.910Z,1011.45
2017-11-11T01:23:12.723Z,1011.44
2017-11-11T01:24:12.827Z,1011.45
2017-11-11T01:25:12.662Z,1011.41
2017-11-11T01:26:12.835Z,1011.36
2017-11-11T01:27:12.598Z,1011.34
2017-11-11T01:28:12.745Z,1011.39
2017-11-11T01:29:12.537Z,1011.35
2017-11-11T01:30:12.661Z,1011.39
2017-11-11T01:31:12.483Z,1011.41
2017-11-11T01:32:12.567Z,1011.39
2017-11-11T01:33:12.423Z,1011.44
2017-11-11T01:34:12.581Z,1011.38
2017-11-11T01:35:12.362Z,1011.40
2017-11-11T01:36:12.494Z,1011.31
2017-11-11T01:37:12.297Z,1011.29
2017-11-11T01:38:12.403Z,1011.29
2017-11-11T01:39:12.240Z,1011.24
2017-11-11T01:40:12.318Z,1011.31
2017-11-11T01:41:12.178Z,1011.24
2017-11-11T01:42:12.226Z,1011.25
2017-11-11T01:43:12.113Z,1011.24
2017-11-11T01:44:12.138Z,1011.10
2017-11-11T01:45:12.059Z,1011.15
2017-11-11T01:46:12.049Z,1011.15
2017-11-11T01:47:12.002Z,1011.08
2017-11-11T01:48:12.063Z,1011.07
2017-11-11T01:49:11.938Z,1011.03
2017-11-11T01:50:11.979Z,1011.04
2017-11-11T01:51:11.874Z,1011.12
2017-11-11T01:52:11.885Z,1011.14
2017-11-11T01:53:11.819Z,1011.15
2017-11-11T01:54:11.908Z,1011.12
2017-11-11T01:55:11.757Z,1011.11
2017-11-11T01:56:11.810Z,1011.06
2017-11-11T01:57:11.693Z,1011.03
2017-11-11T01:58:11.722Z,1011.02
2017-11-11T01:59:11.641Z,1011.01
2017-11-11T02:00:11.635Z,1011.05
2017-11-11T02:01:11.575Z,1011.00
2017-11-11T02:02:11.647Z,1010.98
2017-11-11T02:03:11.513Z,1010.99
2017-11-11T02:04:11.561Z,1010.91
2017-11-11T02:05:11.452Z,1010.92
2017-11-11T02:06:11.472Z,1010.87
2017-11-11T02:07:11.397Z,1010.82
2017-11-11T02:08:11.487Z,1010.89
2017-11-11T02:09:11.335Z,1010.90
2017-11-11T02:10:11.399Z,1010.97
2017-11-11T02:11:11.275Z,1010.90
2017-11-11T02:12:11.311Z,1010.78
2017-11-11T02:13:11.212Z,1010.74
2017-11-11T02:14:11.321Z,1010.84
2017-11-11T02:15:11.155Z,1010.83
2017-11-11T02:16:11.236Z,1010.88
2017-11-11T02:17:11.090Z,1010.87
2017-11-11T02:18:11.144Z,1010.84
2017-11-11T02:19:11.031Z,1010.85
2017-11-11T02:20:11.060Z,1010.83
2017-11-11T02:21:10.976Z,1010.81
2017-11-11T02:22:11.074Z,1010.78
2017-11-11T02:23:10.906Z,1010.75
2017-11-11T02:24:10.989Z,1010.74
2017-11-11T02:25:10.852Z,1010.75
2017-11-11T02:26:10.904Z,1010.76
2017-11-11T02:27:10.789Z,1010.70
2017-11-11T02:28:10.921Z,1010.70
2017-11-11T02:29:10.728Z,1010.73
2017-11-11T02:30:10.832Z,1010.72
2017-11-11T02:31:10.668Z,1010.78
2017-11-11T02:32:10.741Z,1010.72
2017-11-11T02:33:10.604Z,1010.71
2017-11-11T02:34:10.652Z,1010.71
2017-11-11T02:35:10.547Z,1010.61
2017-11-11T02:36:10.666Z,1010.68
2017-11-11T02:37:10.485Z,1010.66
2017-11-11T02:38:10.573Z,1010.62
2017-11-11T02:39:10.425Z,1010.69
2017-11-11T02:40:10.489Z,1010.58
2017-11-11T02:41:10.365Z,1010.56
2017-11-11T02:42:10.499Z,1010.63
2017-11-11T02:43:10.304Z,1010.57
2017-11-11T02:44:10.414Z,1010.58
2017-11-11T02:45:10.239Z,1010.65
2017-11-11T02:46:10.343Z,1010.65
2017-11-11T02:47:10.190Z,1010.59
2017-11-11T02:48:10.230Z,1010.62
2017-11-11T02:49:10.119Z,1010.49
2017-11-11T02:50:10.251Z,1010.51
2017-11-11T02:51:10.066Z,1010.50
2017-11-11T02:52:10.155Z,1010.41
2017-11-11T02:53:10.002Z,1010.38
2017-11-11T02:54:10.074Z,1010.36
2017-11-11T02:55:09.939Z,1010.39
2017-11-11T02:56:10.089Z,1010.42
2017-11-11T02:57:09.883Z,1010.43
2017-11-11T02:58:09.992Z,1010.46
2017-11-11T02:59:09.824Z,1010.47
2017-11-11T03:00:09.907Z,1010.34
2017-11-11T03:01:09.757Z,1010.38
2017-11-11T03:02:09.814Z,1010.26
2017-11-11T03:03:09.696Z,1010.31
2017-11-11T03:04:09.828Z,1010.27
2017-11-11T03:05:09.638Z,1010.33
2017-11-11T03:06:09.742Z,1010.31
2017-11-11T03:07:09.577Z,1010.37
2017-11-11T03:08:09.653Z,1010.40
2017-11-11T03:09:09.515Z,1010.30
2017-11-11T03:10:09.666Z,1010.36
2017-11-11T03:11:09.458Z,1010.33
2017-11-11T03:12:09.579Z,1010.36
2017-11-11T03:13:09.394Z,1010.38
2017-11-11T03:14:09.488Z,1010.32
2017-11-11T03:15:09.336Z,1010.27
2017-11-11T03:16:09.395Z,1010.30
2017-11-11T03:17:09.275Z,1010.20
2017-11-11T03:18:09.415Z,1010.21
2017-11-11T03:19:09.218Z,1010.14
2017-11-11T03:20:09.326Z,1010.06
2017-11-11T03:21:09.152Z,1010.09
2017-11-11T03:22:09.234Z,1010.15
2017-11-11T03:23:09.100Z,1010.04
2017-11-11T03:24:09.251Z,1009.96
2017-11-11T03:25:09.028Z,1010.02
2017-11-11T03:26:09.162Z,1009.98
2017-11-11T03:27:08.968Z,1010.03
2017-11-11T03:28:09.072Z,1010.05
2017-11-11T03:29:08.907Z,1010.05
2017-11-11T03:30:08.990Z,1010.08
2017-11-11T03:31:08.848Z,1010.04
2017-11-11T03:32:08.998Z,1010.01
2017-11-11T03:33:08.790Z,1009.96
2017-11-11T03:34:08.909Z,1009.98
2017-11-11T03:35:08.730Z,1009.99
2017-11-11T03:36:08.821Z,1009.97
2017-11-11T03:37:08.662Z,1010.01
2017-11-11T03:38:08.834Z,1009.95
2017-11-11T03:39:08.607Z,1010.01
2017-11-11T03:40:08.744Z,1009.99
2017-11-11T03:41:08.545Z,1009.97
2017-11-11T03:42:08.662Z,1010.01
2017-11-11T03:43:08.483Z,1009.98
2017-11-11T03:44:08.567Z,1010.02
2017-11-11T03:45:08.426Z,1010.03
2017-11-11T03:46:08.579Z,1009.95
2017-11-11T03:47:08.361Z,1009.91
2017-11-11T03:48:08.495Z,1009.96
2017-11-11T03:49:08.305Z,1009.83
2017-11-11T03:50:08.406Z,1009.76
2017-11-11T03:51:08.242Z,1009.74
2017-11-11T03:52:08.419Z,1009.77
2017-11-11T03:53:08.178Z,1009.73
2017-11-11T03:54:08.332Z,1009.70
2017-11-11T03:55:08.124Z,1009.72
2017-11-11T03:56:08.242Z,1009.70
2017-11-11T03:57:08.064Z,1009.69
2017-11-11T03:58:08.153Z,1009.70
2017-11-11T03:59:07.999Z,1009.69
2017-11-11T04:00:08.170Z,1009.72
2017-11-11T04:01:07.943Z,1009.75
2017-11-11T04:02:08.081Z,1009.70
2017-11-11T04:03:07.880Z,1009.70
2017-11-11T04:04:07.992Z,1009.65
2017-11-11T04:05:07.828Z,1009.62
2017-11-11T04:06:07.907Z,1009.55
2017-11-11T04:07:07.756Z,1009.55
2017-11-11T04:08:07.813Z,1009.53
2017-11-11T04:09:07.703Z,1009.54
2017-11-11T04:10:07.727Z,1009.46
2017-11-11T04:11:07.646Z,1009.48
2017-11-11T04:12:07.639Z,1009.44
2017-11-11T04:13:07.575Z,1009.44
2017-11-11T04:14:07.652Z,1009.41
2017-11-11T04:15:07.516Z,1009.38
2017-11-11T04:16:08.587Z,1009.39
2017-11-11T04:17:07.457Z,1009.35
2017-11-11T04:18:07.472Z,1009.50
2017-11-11T04:19:07.395Z,1009.42
2017-11-11T04:20:07.486Z,1009.37
2017-11-11T04:21:07.339Z,1009.43
2017-11-11T04:22:07.400Z,1009.36
2017-11-11T04:23:07.272Z,1009.36
2017-11-11T04:24:07.311Z,1009.32
2017-11-11T04:25:07.215Z,1009.29
2017-11-11T04:26:07.223Z,1009.28
2017-11-11T04:27:07.154Z,1009.31
2017-11-11T04:28:07.236Z,1009.31
2017-11-11T04:29:07.105Z,1009.38
2017-11-11T04:30:07.147Z,1009.37
2017-11-11T04:31:07.033Z,1009.36
2017-11-11T04:32:07.056Z,1009.36
2017-11-11T04:33:06.978Z,1009.39
2017-11-11T04:34:07.073Z,1009.37
2017-11-11T04:35:06.915Z,1009.46
2017-11-11T04:36:06.983Z,1009.37
2017-11-11T04:37:06.857Z,1009.39
2017-11-11T04:38:06.905Z,1009.34
2017-11-11T04:39:06.795Z,1009.43
2017-11-11T04:40:06.811Z,1009.35
2017-11-11T04:41:06.732Z,1009.28
2017-11-11T04:42:06.821Z,1009.31
2017-11-11T04:43:06.668Z,1009.33
2017-11-11T04:44:06.733Z,1009.27
2017-11-11T04:45:06.619Z,1009.29
2017-11-11T04:46:06.643Z,1009.29
2017-11-11T04:47:06.553Z,1009.33
2017-11-11T04:48:06.657Z,1009.38
2017-11-11T04:49:06.496Z,1009.38
2017-11-11T04:50:06.571Z,1009.34
2017-11-11T04:51:06.429Z,1009.31
2017-11-11T04:52:06.505Z,1009.32
2017-11-11T04:53:06.379Z,1009.30
2017-11-11T04:54:06.502Z,1009.29
2017-11-11T04:55:06.314Z,1009.20
2017-11-11T04:56:06.405Z,1009.36
2017-11-11T04:57:06.251Z,1009.20
2017-11-11T04:58:06.316Z,1009.23
2017-11-11T04:59:06.194Z,1009.30
2017-11-11T05:00:06.229Z,1009.27
2017-11-11T05:01:06.128Z,1009.18
2017-11-11T05:02:06.242Z,1009.19
2017-11-11T05:03:06.082Z,1009.15
2017-11-11T05:04:06.154Z,1009.18
2017-11-11T05:05:06.011Z,1009.14
2017-11-11T05:06:06.064Z,1009.02
2017-11-11T05:07:05.953Z,1009.04
2017-11-11T05:08:06.077Z,1009.05
2017-11-11T05:09:05.891Z,1009.01
2017-11-11T05:10:05.989Z,1009.08
2017-11-11T05:11:05.831Z,1009.00
2017-11-11T05:12:05.904Z,1008.96
2017-11-11T05:13:05.774Z,1009.01
2017-11-11T05:14:05.817Z,1008.98
2017-11-11T05:15:05.712Z,1009.00
2017-11-11T05:16:05.824Z,1009.01
2017-11-11T05:17:05.651Z,1009.03
2017-11-11T05:18:05.740Z,1009.00
2017-11-11T05:19:05.592Z,1009.01
2017-11-11T05:20:05.654Z,1008.94
2017-11-11T05:21:05.531Z,1008.90
2017-11-11T05:22:05.663Z,1008.88
2017-11-11T05:23:05.473Z,1008.88
2017-11-11T05:24:05.576Z,1008.88
2017-11-11T05:25:05.412Z,1008.86
2017-11-11T05:26:05.494Z,1008.80
2017-11-11T05:27:05.359Z,1008.74
2017-11-11T05:28:05.502Z,1008.73
2017-11-11T05:29:05.292Z,1008.75
2017-11-11T05:30:05.413Z,1008.75
2017-11-11T05:31:05.236Z,1008.73
2017-11-11T05:32:05.320Z,1008.65
2017-11-11T05:33:05.170Z,1008.62
2017-11-11T05:34:05.236Z,1008.60
2017-11-11T05:35:05.116Z,1008.58
2017-11-11T05:36:05.249Z,1008.61
2017-11-11T05:37:05.053Z,1008.56
2017-11-11T05:38:05.090Z,1008.57
2017-11-11T05:39:04.994Z,1008.58
2017-11-11T05:40:05.002Z,1008.55
2017-11-11T05:41:04.944Z,1008.53
2017-11-11T05:42:05.087Z,1008.47
2017-11-11T05:43:04.873Z,1008.43
2017-11-11T05:44:04.997Z,1008.44
2017-11-11T05:45:04.816Z,1008.40
2017-11-11T05:46:04.920Z,1008.40
2017-11-11T05:47:04.752Z,1008.39
2017-11-11T05:48:04.818Z,1008.38
2017-11-11T05:49:04.693Z,1008.35
2017-11-11T05:50:04.835Z,1008.32
2017-11-11T05:51:04.644Z,1008.33
2017-11-11T05:52:04.745Z,1008.34
2017-11-11T05:53:04.576Z,1008.33
2017-11-11T05:54:04.655Z,1008.34
2017-11-11T05:55:04.517Z,1008.32
2017-11-11T05:56:04.669Z,1008.31
2017-11-11T05:57:04.457Z,1008.23
2017-11-11T05:58:04.583Z,1008.26
2017-11-11T05:59:04.393Z,1008.25
2017-11-11T06:00:04.494Z,1008.21
2017-11-11T06:01:04.330Z,1008.24
2017-11-11T06:02:04.408Z,1008.34
2017-11-11T06:03:04.273Z,1008.33
2017-11-11T06:04:04.418Z,1008.30
2017-11-11T06:05:04.217Z,1008.36
2017-11-11T06:06:04.330Z,1008.27
2017-11-11T06:07:04.162Z,1008.31
2017-11-11T06:08:04.242Z,1008.25
2017-11-11T06:09:04.089Z,1008.29
2017-11-11T06:10:04.256Z,1008.27
2017-11-11T06:11:04.037Z,1008.28
2017-11-11T06:12:04.171Z,1008.24
2017-11-11T06:13:03.980Z,1008.23
2017-11-11T06:14:04.102Z,1008.23
2017-11-11T06:15:03.912Z,1008.21
2017-11-11T06:16:04.092Z,1008.21
2017-11-11T06:17:03.854Z,1008.24
2017-11-11T06:18:04.004Z,1008.17
2017-11-11T06:19:03.796Z,1008.14
2017-11-11T06:20:03.915Z,1008.11
2017-11-11T06:21:03.743Z,1008.08
2017-11-11T06:22:03.829Z,1008.06
2017-11-11T06:23:03.672Z,1008.01
2017-11-11T06:24:03.840Z,1008.02
2017-11-11T06:25:03.620Z,1007.97
2017-11-11T06:26:03.751Z,1007.96
2017-11-11T06:27:03.554Z,1007.98
2017-11-11T06:28:03.664Z,1008.00
2017-11-11T06:29:03.498Z,1007.90
2017-11-11T06:30:03.681Z,1007.93
2017-11-11T06:31:03.441Z,1007.91
2017-11-11T06:32:03.589Z,1007.95
2017-11-11T06:33:03.375Z,1007.85
2017-11-11T06:34:03.397Z,1007.90
2017-11-11T06:35:03.318Z,1007.81
2017-11-11T06:36:03.308Z,1007.82
2017-11-11T06:37:03.254Z,1007.79
2017-11-11T06:38:03.322Z,1007.82
2017-11-11T06:39:03.198Z,1007.83
2017-11-11T06:40:03.234Z,1007.82
2017-11-11T06:41:03.146Z,1007.79
2017-11-11T06:42:03.147Z,1007.80
2017-11-11T06:43:03.075Z,1007.80
2017-11-11T06:44:03.159Z,1007.78
2017-11-11T06:45:03.023Z,1007.79
2017-11-11T06:46:03.074Z,1007.77
2017-11-11T06:47:02.958Z,1007.75
2017-11-11T06:48:02.983Z,1007.64
2017-11-11T06:49:02.900Z,1007.66
2017-11-11T06:50:02.997Z,1007.69
2017-11-11T06:51:02.834Z,1007.76
2017-11-11T06:52:02.908Z,1007.74
2017-11-11T06:53:02.782Z,1007.72
2017-11-11T06:54:02.819Z,1007.63
2017-11-11T06:55:02.717Z,1007.70
2017-11-11T06:56:02.734Z,1007.71
2017-11-11T06:57:02.656Z,1007.67
2017-11-11T06:58:02.744Z,1007.69
2017-11-11T06:59:02.596Z,1007.75
2017-11-11T07:00:02.671Z,1007.70
2017-11-11T07:01:02.545Z,1007.66
2017-11-11T07:02:02.566Z,1007.69
2017-11-11T07:03:02.489Z,1007.70
2017-11-11T07:04:02.581Z,1007.70
2017-11-11T07:05:02.413Z,1007.63
2017-11-11T07:06:02.488Z,1007.68
2017-11-11T07:07:02.359Z,1007.64
2017-11-11T07:08:02.405Z,1007.71
2017-11-11T07:09:02.298Z,1007.66
2017-11-11T07:10:02.316Z,1007.74
2017-11-11T07:11:02.236Z,1007.72
2017-11-11T07:12:02.328Z,1007.72
2017-11-11T07:13:02.177Z,1007.77
2017-11-11T07:14:02.237Z,1007.71
2017-11-11T07:15:02.119Z,1007.74
2017-11-11T07:16:02.151Z,1007.76
2017-11-11T07:17:02.065Z,1007.67
2017-11-11T07:18:02.169Z,1007.73
2017-11-11T07:19:01.997Z,1007.62
2017-11-11T07:20:02.078Z,1007.64
2017-11-11T07:21:01.947Z,1007.60
2017-11-11T07:22:01.949Z,1007.66
2017-11-11T07:23:01.881Z,1007.53
2017-11-11T07:24:02.002Z,1007.55
2017-11-11T07:25:01.819Z,1007.51
2017-11-11T07:26:01.913Z,1007.51
2017-11-11T07:27:01.761Z,1007.48
2017-11-11T07:28:01.827Z,1007.48
2017-11-11T07:29:01.716Z,1007.41
2017-11-11T07:30:01.735Z,1007.47
2017-11-11T07:31:01.638Z,1007.57
2017-11-11T07:32:01.749Z,1007.53
2017-11-11T07:33:01.582Z,1007.44
2017-11-11T07:34:01.660Z,1007.48
2017-11-11T07:35:01.525Z,1007.45
2017-11-11T07:36:01.569Z,1007.50
2017-11-11T07:37:01.460Z,1007.44
2017-11-11T07:38:01.590Z,1007.57
2017-11-11T07:39:01.402Z,1007.55
2017-11-11T07:40:01.494Z,1007.58
2017-11-11T07:41:01.347Z,1007.50
2017-11-11T07:42:01.414Z,1007.51
2017-11-11T07:43:01.286Z,1007.53
2017-11-11T07:44:01.423Z,1007.47
2017-11-11T07:45:01.247Z,1007.43
2017-11-11T07:46:01.333Z,1007.44
2017-11-11T07:47:01.171Z,1007.41
2017-11-11T07:48:01.262Z,1007.44
2017-11-11T07:49:01.110Z,1007.36
2017-11-11T07:50:01.155Z,1007.45
2017-11-11T07:51:01.049Z,1007.41
2017-11-11T07:52:01.168Z,1007.42
2017-11-11T07:53:00.987Z,1007.41
2017-11-11T07:54:00.979Z,1007.49
2017-11-11T07:55:00.937Z,1007.49
2017-11-11T07:56:00.996Z,1007.49
2017-11-11T07:57:00.869Z,1007.48
2017-11-11T07:58:01.012Z,1007.48
2017-11-11T07:59:00.815Z,1007.41
2017-11-11T08:00:00.920Z,1007.43
2017-11-11T08:01:00.751Z,1007.44
2017-11-11T08:02:00.831Z,1007.43
2017-11-11T08:03:00.692Z,1007.40
2017-11-11T08:04:00.849Z,1007.43
2017-11-11T08:05:00.632Z,1007.42
2017-11-11T08:06:00.758Z,1007.40
2017-11-11T08:07:00.572Z,1007.32
2017-11-11T08:08:00.669Z,1007.37
2017-11-11T08:09:00.516Z,1007.44
2017-11-11T08:10:00.584Z,1007.47
2017-11-11T08:11:00.455Z,1007.42
2017-11-11T08:12:00.594Z,1007.46
2017-11-11T08:13:00.398Z,1007.40
2017-11-11T08:14:00.508Z,1007.42
2017-11-11T08:15:00.337Z,1007.44
2017-11-11T08:16:00.420Z,1007.43
2017-11-11T08:17:00.274Z,1007.40
2017-11-11T08:18:00.250Z,1007.41
2017-11-11T08:19:00.220Z,1007.44
2017-11-11T08:20:00.353Z,1007.38
2017-11-11T08:21:00.162Z,1007.39
2017-11-11T08:22:00.255Z,1007.38
2017-11-11T08:23:00.105Z,1007.40
2017-11-11T08:24:00.079Z,1007.39
2017-11-11T08:25:00.043Z,1007.47
2017-11-11T08:26:00.092Z,1007.47
2017-11-11T08:26:59.981Z,1007.34
2017-11-11T08:28:00.035Z,1007.39
2017-11-11T08:28:59.929Z,1007.33
2017-11-11T08:29:59.911Z,1007.30
2017-11-11T08:30:59.867Z,1007.26
2017-11-11T08:31:59.930Z,1007.25
2017-11-11T08:32:59.811Z,1007.22
2017-11-11T08:33:59.849Z,1007.19
2017-11-11T08:34:59.747Z,1007.18
2017-11-11T08:35:59.747Z,1007.23
2017-11-11T08:36:59.688Z,1007.21
2017-11-11T08:37:59.759Z,1007.23
2017-11-11T08:38:59.636Z,1007.16
2017-11-11T08:39:59.665Z,1007.15
2017-11-11T08:40:59.579Z,1007.14
2017-11-11T08:41:59.580Z,1007.15
2017-11-11T08:42:59.514Z,1007.13
2017-11-11T08:43:59.591Z,1007.13
2017-11-11T08:44:59.474Z,1007.10
2017-11-11T08:45:59.498Z,1007.10
2017-11-11T08:46:59.397Z,1007.09
2017-11-11T08:47:59.412Z,1007.04
2017-11-11T08:48:59.351Z,1007.06
2017-11-11T08:49:59.419Z,1007.08
2017-11-11T08:50:59.278Z,1007.04
2017-11-11T08:51:59.331Z,1007.03
2017-11-11T08:52:59.219Z,1007.03
2017-11-11T08:53:59.347Z,1007.01
2017-11-11T08:54:59.162Z,1007.04
2017-11-11T08:55:59.259Z,1007.00
2017-11-11T08:56:59.104Z,1006.97
2017-11-11T08:57:59.270Z,1006.97
2017-11-11T08:58:59.041Z,1006.96
2017-11-11T08:59:59.186Z,1006.90
2017-11-11T09:00:58.986Z,1006.95
2017-11-11T09:01:58.991Z,1006.90
2017-11-11T09:02:58.927Z,1006.92
2017-11-11T09:03:59.130Z,1006.88
2017-11-11T09:04:58.867Z,1006.85
2017-11-11T09:05:58.915Z,1006.88
2017-11-11T09:06:58.813Z,1006.80
2017-11-11T09:07:58.832Z,1006.78
2017-11-11T09:08:58.747Z,1006.73
2017-11-11T09:09:58.848Z,1006.73
2017-11-11T09:10:58.695Z,1006.70
2017-11-11T09:11:58.756Z,1006.74
2017-11-11T09:12:58.633Z,1006.74
2017-11-11T09:13:58.668Z,1006.73
2017-11-11T09:14:58.575Z,1006.67
2017-11-11T09:15:58.579Z,1006.69
2017-11-11T09:16:58.518Z,1006.75
2017-11-11T09:17:58.598Z,1006.70
2017-11-11T09:18:58.459Z,1006.65
2017-11-11T09:19:58.507Z,1006.63
2017-11-11T09:20:58.404Z,1006.65
2017-11-11T09:21:58.419Z,1006.62
2017-11-11T09:22:58.344Z,1006.58
2017-11-11T09:23:58.430Z,1006.60
2017-11-11T09:24:58.282Z,1006.55
2017-11-11T09:25:58.354Z,1006.59
2017-11-11T09:26:58.231Z,1006.55
2017-11-11T09:27:58.250Z,1006.54
2017-11-11T09:28:58.175Z,1006.56
2017-11-11T09:29:58.263Z,1006.47
2017-11-11T09:30:58.105Z,1006.48
2017-11-11T09:31:58.149Z,1006.50
2017-11-11T09:32:58.054Z,1006.48
2017-11-11T09:33:58.087Z,1006.50
2017-11-11T09:34:57.988Z,1006.46
2017-11-11T09:35:58.101Z,1006.48
2017-11-11T09:36:57.937Z,1006.45
2017-11-11T09:37:58.014Z,1006.42
2017-11-11T09:38:57.872Z,1006.37
2017-11-11T09:39:57.925Z,1006.41
2017-11-11T09:40:57.817Z,1006.36
2017-11-11T09:41:57.836Z,1006.38
2017-11-11T09:42:57.789Z,1006.33
2017-11-11T09:43:57.850Z,1006.31
2017-11-11T09:44:57.697Z,1006.31
2017-11-11T09:45:57.760Z,1006.26
2017-11-11T09:46:57.651Z,1006.24
2017-11-11T09:47:57.671Z,1006.21
2017-11-11T09:48:57.583Z,1006.17
2017-11-11T09:49:57.687Z,1006.16
2017-11-11T09:50:57.518Z,1006.13
2017-11-11T09:51:57.603Z,1006.11
2017-11-11T09:52:57.462Z,1006.16
2017-11-11T09:53:57.509Z,1006.11
2017-11-11T09:54:57.401Z,1006.09
2017-11-11T09:55:57.522Z,1006.14
2017-11-11T09:56:57.351Z,1006.12
2017-11-11T09:57:57.434Z,1006.09
2017-11-11T09:58:57.289Z,1006.06
2017-11-11T09:59:57.372Z,1006.00
2017-11-11T10:00:57.230Z,1006.05
2017-11-11T10:01:57.359Z,1006.00
2017-11-11T10:02:57.170Z,1006.01
2017-11-11T10:03:57.273Z,1005.98
2017-11-11T10:04:57.114Z,1005.97
2017-11-11T10:05:57.182Z,1005.97
2017-11-11T10:06:57.065Z,1005.98
2017-11-11T10:07:57.094Z,1005.93
2017-11-11T10:08:56.998Z,1005.91
2017-11-11T10:09:57.108Z,1005.92
2017-11-11T10:10:56.935Z,1005.87
2017-11-11T10:11:57.017Z,1005.84
2017-11-11T10:12:56.885Z,1005.85
2017-11-11T10:13:56.928Z,1005.81
2017-11-11T10:14:56.831Z,1005.84
2017-11-11T10:15:56.943Z,1005.84
2017-11-11T10:16:56.767Z,1005.80
2017-11-11T10:17:56.855Z,1005.76
2017-11-11T10:18:56.705Z,1005.72
2017-11-11T10:19:56.769Z,1005.69
2017-11-11T10:20:56.651Z,1005.67
2017-11-11T10:21:56.780Z,1005.66
2017-11-11T10:22:56.589Z,1005.67
2017-11-11T10:23:56.691Z,1005.61
2017-11-11T10:24:56.532Z,1005.64
2017-11-11T10:25:56.605Z,1005.65
2017-11-11T10:26:56.481Z,1005.58
2017-11-11T10:27:56.614Z,1005.52
2017-11-11T10:28:56.437Z,1005.52
2017-11-11T10:29:56.527Z,1005.56
2017-11-11T10:30:56.358Z,1005.52
2017-11-11T10:31:56.443Z,1005.55
2017-11-11T10:32:56.297Z,1005.52
2017-11-11T10:33:56.349Z,1005.50
2017-11-11T10:34:56.244Z,1005.44
2017-11-11T10:35:56.365Z,1005.44
2017-11-11T10:36:56.179Z,1005.41
2017-11-11T10:37:56.278Z,1005.40
2017-11-11T10:38:56.125Z,1005.37
2017-11-11T10:39:56.187Z,1005.39
2017-11-11T10:40:56.073Z,1005.35
2017-11-11T10:41:56.199Z,1005.31
2017-11-11T10:42:56.011Z,1005.33
2017-11-11T10:43:56.123Z,1005.28
2017-11-11T10:44:55.955Z,1005.30
2017-11-11T10:45:56.027Z,1005.21
2017-11-11T10:46:55.891Z,1005.20
2017-11-11T10:47:55.935Z,1005.20
2017-11-11T10:48:55.837Z,1005.19
2017-11-11T10:49:55.846Z,1005.16
2017-11-11T10:50:55.778Z,1005.17
2017-11-11T10:51:55.866Z,1005.13
2017-11-11T10:52:55.717Z,1005.13
2017-11-11T10:53:55.805Z,1005.11
2017-11-11T10:54:55.663Z,1005.09
2017-11-11T10:55:55.694Z,1005.11
2017-11-11T10:56:55.613Z,1005.07
2017-11-11T10:57:55.595Z,1005.01
2017-11-11T10:58:55.543Z,1005.02
2017-11-11T10:59:55.609Z,1005.01
2017-11-11T11:00:55.507Z,1004.98
2017-11-11T11:01:55.521Z,1005.00
2017-11-11T11:02:55.424Z,1004.95
2017-11-11T11:03:55.434Z,1004.97
2017-11-11T11:04:55.379Z,1004.97
2017-11-11T11:05:55.445Z,1004.98
2017-11-11T11:06:55.321Z,1004.92
2017-11-11T11:07:55.359Z,1004.93
2017-11-11T11:08:55.253Z,1004.89
2017-11-11T11:09:55.275Z,1004.84
2017-11-11T11:10:55.246Z,1004.81
2017-11-11T11:11:55.189Z,1004.81
2017-11-11T11:12:55.155Z,1004.84
2017-11-11T11:13:55.201Z,1004.86
2017-11-11T11:14:55.082Z,1004.81
2017-11-11T11:15:55.115Z,1004.78
2017-11-11T11:16:55.118Z,1004.77
2017-11-11T11:17:54.998Z,1004.79
2017-11-11T11:18:55.034Z,1004.74
2017-11-11T11:19:54.940Z,1004.72
2017-11-11T11:20:54.950Z,1004.69
2017-11-11T11:21:54.882Z,1004.66
2017-11-11T11:22:54.956Z,1004.64
2017-11-11T11:23:54.826Z,1004.61
2017-11-11T11:24:54.868Z,1004.62
2017-11-11T11:25:54.770Z,1004.59
2017-11-11T11:26:54.783Z,1004.55
2017-11-11T11:27:54.705Z,1004.60
2017-11-11T11:28:54.801Z,1004.58
2017-11-11T11:29:54.653Z,1004.57
2017-11-11T11:30:54.706Z,1004.54
2017-11-11T11:31:54.594Z,1004.54
2017-11-11T11:32:54.616Z,1004.52
2017-11-11T11:33:54.537Z,1004.55
2017-11-11T11:34:54.531Z,1004.52
2017-11-11T11:35:54.477Z,1004.51
2017-11-11T11:36:54.551Z,1004.49
2017-11-11T11:37:54.420Z,1004.53
2017-11-11T11:38:54.455Z,1004.53
2017-11-11T11:39:54.373Z,1004.48
2017-11-11T11:40:54.364Z,1004.46
2017-11-11T11:41:54.306Z,1004.47
2017-11-11T11:42:54.378Z,1004.47
2017-11-11T11:43:54.254Z,1004.42
2017-11-11T11:44:54.288Z,1004.40
2017-11-11T11:45:54.196Z,1004.46
2017-11-11T11:46:54.201Z,1004.40
2017-11-11T11:47:54.137Z,1004.45
2017-11-11T11:48:54.214Z,1004.39
2017-11-11T11:49:54.088Z,1004.42
2017-11-11T11:50:54.125Z,1004.43
2017-11-11T11:51:54.027Z,1004.41
2017-11-11T11:52:54.037Z,1004.35
2017-11-11T11:53:53.964Z,1004.33
2017-11-11T11:54:54.048Z,1004.30
2017-11-11T11:55:53.911Z,1004.29
2017-11-11T11:56:53.960Z,1004.33
2017-11-11T11:57:53.849Z,1004.30
2017-11-11T11:58:53.896Z,1004.34
2017-11-11T11:59:53.795Z,1004.37
2017-11-11T12:00:53.784Z,1004.33
2017-11-11T12:01:53.738Z,1004.36
2017-11-11T12:02:53.795Z,1004.37
2017-11-11T12:03:53.676Z,1004.36
2017-11-11T12:04:53.706Z,1004.40